• Join FlightAware (Why Join?)
  • Login
  • US Flag 
01:07PM EDT


 

Airport Tracker/Info


-or-


 

Live Flight TrackerFlight Track Log ✈ SWA1031 ✈ 06-Jan-2014 ✈ KSTL - KSDF

Flight Track Log - Related Links

Times and Time Zones

All times are in EST time to prevent confusion due to time zone crossing. See the SWA1031 flight status page for this flight to view local times or setup timezone preferences in your user account.

Time Position Orientation Groundspeed Altitude Reporting Facility
EST Latitude Longitude Course Direction KTS MPH feet Rate Location/Type
08:45PM 38.8156 -90.3933 347° North 174 200 7,600  Level Kansas City Center
08:46PM 38.8369 -90.3225 69° East 237 273 12,000 3,960 Climbing Kansas City Center
08:47PM 38.7925 -90.1908 113° Southeast 342 394 15,600 3,540 Climbing Kansas City Center
08:48PM 38.7483 -90.0669 115° Southeast 371 427 19,200 3,420 Climbing Kansas City Center
08:49PM 38.6983 -89.9242 114° Southeast 404 465 22,700 1,860 Climbing Kansas City Center
08:50PM 38.6483 -89.7858 115° Southeast 422 486 23,000 1,620 Climbing Kansas City Center
08:51PM 38.5983 -89.6486 115° Southeast 426 490 26,100 2,880 Climbing Kansas City Center
08:52PM 38.5478 -89.5100 115° Southeast 429 494 28,900 1,380 Climbing Kansas City Center
08:53PM 38.4967 -89.3697 115° Southeast 436 502 29,000  Climbing Kansas City Center
08:54PM 38.4392 -89.2125 115° Southeast 457 526 29,000  Level Kansas City Center
08:55PM 38.4131 -89.0431 101° East 485 558 29,000  Level Kansas City Center
08:56PM 38.4067 -88.8581 92° East 485 558 29,000  Level Kansas City Center
08:57PM 38.3981 -88.6867 94° East 486 559 29,000  Level Kansas City Center
08:58PM 38.3908 -88.5325 93° East 489 563 29,000 -540 Level Kansas City Center
08:59PM 38.3831 -88.3592 93° East 489 563 27,900 -1,020 Descending Kansas City Center
09:00PM 38.3750 -88.1906 93° East 479 551 27,000 -480 Descending Kansas City Center
09:01PM 38.3656 -87.9903 93° East 472 543 27,000  Level Kansas City Center
09:02PM 38.3567 -87.8214 94° East 474 545 27,000  Level Kansas City Center
09:03PM 38.3503 -87.6900 94° East 473 544 27,000 -480 Level Indianapolis Center
09:04PM 38.3408 -87.5219 94° East 474 545 26,100 -1,860 Descending Indianapolis Center
09:05PM 38.3308 -87.3283 94° East 457 526 23,300 -2,460 Descending Indianapolis Center
09:06PM 38.3144 -87.1750 98° East 438 504 21,100 -2,040 Descending Indianapolis Center
09:07PM 38.2958 -87.0342 100° East 428 493 19,200 -1,860 Descending Indianapolis Center
09:08PM 38.2794 -86.8972 99° East 416 479 17,400 -2,160 Descending Indianapolis Center
09:09PM 38.2619 -86.7561 99° East 405 466 14,900 -2,220 Descending Indianapolis Center
09:10PM 38.2428 -86.6183 100° East 398 458 13,000 -1,500 Descending Indianapolis Center
09:11PM 38.2011 -86.4983 114° Southeast 374 430 11,900 -1,140 Descending Indianapolis Center
09:12PM 38.1631 -86.3889 114° Southeast 344 396 10,800 -960 Descending Indianapolis Center
09:13PM 38.1269 -86.2869 114° Southeast 320 368 10,000 -420 Descending Indianapolis Center
09:15PM 38.0931 -86.1864 113° Southeast 308 354 10,000 -180 Level Indianapolis Center
09:16PM 38.0581 -86.0881 114° Southeast 305 351 9,700 -960 Descending Indianapolis Center
09:17PM 38.0189 -85.9747 114° Southeast 292 336 8,100 -1,500 Descending Indianapolis Center
09:18PM 37.9894 -85.8833 112° Southeast 285 328 6,700 -1,320 Descending Indianapolis Center
09:19PM 37.9586 -85.7939 114° Southeast 280 322 5,500 -1,080 Descending Indianapolis Center
09:20PM 37.9536 -85.7100 94° East 269 310 4,500 -1,020 Descending Indianapolis Center
09:21PM 38.0014 -85.6847 23° Northeast 231 266 3,500 -780 Descending Indianapolis Center
09:22PM 38.0472 -85.6997 346° North 195 224 3,000 -720 Descending Indianapolis Center
09:24PM 38.1333 -85.7333 343° North 115 132 1,200 -780 Descending Louisville TRACON